createdAt,value
2022-11-14T00:01:07.168Z,9.60
2022-11-14T00:03:52.270Z,9.50
2022-11-14T00:06:37.364Z,9.30
2022-11-14T00:09:29.050Z,9.50
2022-11-14T00:12:14.209Z,9.40
2022-11-14T00:14:59.264Z,9.50
2022-11-14T00:17:44.155Z,9.60
2022-11-14T00:20:29.428Z,9.60
2022-11-14T00:23:14.651Z,9.70
2022-11-14T00:25:59.884Z,9.30
2022-11-14T00:28:45.164Z,9.40
2022-11-14T00:31:30.322Z,9.40
2022-11-14T00:34:15.811Z,9.30
2022-11-14T00:37:01.428Z,9.40
2022-11-14T00:39:46.804Z,9.50
2022-11-14T00:42:31.946Z,9.20
2022-11-14T00:45:17.166Z,9.30
2022-11-14T00:48:02.274Z,9.40
2022-11-14T00:50:47.182Z,9.20
2022-11-14T00:53:32.333Z,9.30
2022-11-14T00:56:17.586Z,9.20
2022-11-14T00:59:02.956Z,9.30
2022-11-14T01:01:48.182Z,9.40
2022-11-14T01:04:33.443Z,9.40
2022-11-14T01:07:18.771Z,9.30
2022-11-14T01:10:05.048Z,9.40
2022-11-14T01:12:50.390Z,9.50
2022-11-14T01:15:47.385Z,9.50
2022-11-14T01:18:32.960Z,9.30
2022-11-14T01:21:17.817Z,9.30
2022-11-14T01:24:03.254Z,9.40
2022-11-14T01:26:48.606Z,9.40
2022-11-14T01:29:33.763Z,9.10
2022-11-14T01:32:19.020Z,9.20
2022-11-14T01:35:04.077Z,9.10
2022-11-14T01:37:49.409Z,9.10
2022-11-14T01:40:34.765Z,9.20
2022-11-14T01:43:22.851Z,9.20
2022-11-14T01:46:34.090Z,9.20
2022-11-14T01:49:25.639Z,9.10
2022-11-14T01:52:24.586Z,9.10
2022-11-14T01:55:10.234Z,9.10
2022-11-14T01:57:55.636Z,9.10
2022-11-14T02:00:41.380Z,9.00
2022-11-14T02:03:26.358Z,8.90
2022-11-14T02:06:14.765Z,9.00
2022-11-14T02:09:04.987Z,8.80
2022-11-14T02:11:50.670Z,8.80
2022-11-14T02:14:37.289Z,9.00
2022-11-14T02:17:29.484Z,8.90
2022-11-14T02:20:29.618Z,8.90
2022-11-14T02:23:14.938Z,8.80
2022-11-14T02:26:00.083Z,9.00
2022-11-14T02:28:45.635Z,9.20
2022-11-14T02:31:30.407Z,9.20
2022-11-14T02:34:19.768Z,9.00
2022-11-14T02:37:05.542Z,8.80
2022-11-14T02:39:50.730Z,8.90
2022-11-14T02:42:36.080Z,8.80
2022-11-14T02:45:21.373Z,8.80
2022-11-14T02:48:06.811Z,9.00
2022-11-14T02:50:51.971Z,9.00
2022-11-14T02:53:37.218Z,8.90
2022-11-14T02:56:22.454Z,9.00
2022-11-14T02:59:07.657Z,9.30
2022-11-14T03:01:52.955Z,9.00
2022-11-14T03:04:38.030Z,9.00
2022-11-14T03:07:23.278Z,8.80
2022-11-14T03:10:09.562Z,8.80
2022-11-14T03:12:55.632Z,8.90
2022-11-14T03:15:40.729Z,9.00
2022-11-14T03:18:26.017Z,9.10
2022-11-14T03:21:18.341Z,8.80
2022-11-14T03:24:03.409Z,9.00
2022-11-14T03:26:48.567Z,9.20
2022-11-14T03:29:33.786Z,8.90
2022-11-14T03:32:19.103Z,8.80
2022-11-14T03:35:04.512Z,8.70
2022-11-14T03:37:51.739Z,8.70
2022-11-14T03:40:41.003Z,9.00
2022-11-14T03:43:26.471Z,9.00
2022-11-14T03:46:11.451Z,9.00
2022-11-14T03:48:56.453Z,9.00
2022-11-14T03:51:41.669Z,8.90
2022-11-14T03:54:26.914Z,8.80
2022-11-14T03:57:12.068Z,8.80
2022-11-14T03:59:57.408Z,8.70
2022-11-14T04:02:42.275Z,8.70
2022-11-14T04:05:27.494Z,9.00
2022-11-14T04:08:12.587Z,9.00
2022-11-14T04:10:57.853Z,9.10
2022-11-14T04:13:43.347Z,9.00
2022-11-14T04:16:28.616Z,9.10
2022-11-14T04:19:13.811Z,9.10
2022-11-14T04:21:59.028Z,9.00
2022-11-14T04:24:44.205Z,9.00
2022-11-14T04:27:29.096Z,9.10
2022-11-14T04:30:14.245Z,9.10
2022-11-14T04:32:59.344Z,8.90
2022-11-14T04:35:44.648Z,9.00
2022-11-14T04:38:30.245Z,8.90
2022-11-14T04:41:15.786Z,8.90
2022-11-14T04:44:01.403Z,8.90
2022-11-14T04:46:46.468Z,9.00
2022-11-14T04:49:31.883Z,8.80
2022-11-14T04:52:17.269Z,8.50
2022-11-14T04:55:02.487Z,8.50
2022-11-14T04:57:47.784Z,8.70
2022-11-14T05:00:33.030Z,8.50
2022-11-14T05:03:18.380Z,8.40
2022-11-14T05:06:03.824Z,8.60
2022-11-14T05:08:49.128Z,8.30
2022-11-14T05:11:34.579Z,8.50
2022-11-14T05:14:19.871Z,8.50
2022-11-14T05:17:05.252Z,8.70
2022-11-14T05:19:50.663Z,8.80
2022-11-14T05:22:35.769Z,8.60
2022-11-14T05:25:21.867Z,8.60
2022-11-14T05:28:06.854Z,8.60
2022-11-14T05:30:52.056Z,8.60
2022-11-14T05:33:37.045Z,8.60
2022-11-14T05:36:22.191Z,8.60
2022-11-14T05:39:07.447Z,8.50
2022-11-14T05:41:52.792Z,8.60
2022-11-14T05:44:38.073Z,8.50
2022-11-14T05:47:23.449Z,8.50
2022-11-14T05:50:09.694Z,8.40
2022-11-14T05:52:56.526Z,8.60
2022-11-14T05:55:41.911Z,8.80
2022-11-14T05:58:27.634Z,8.60
2022-11-14T06:01:18.581Z,8.50
2022-11-14T06:04:06.305Z,8.50
2022-11-14T06:06:51.839Z,8.40
2022-11-14T06:09:37.171Z,8.60
2022-11-14T06:12:22.489Z,8.50
2022-11-14T06:15:08.083Z,8.50
2022-11-14T06:17:53.921Z,8.50
2022-11-14T06:20:39.128Z,8.50
2022-11-14T06:23:24.985Z,8.50
2022-11-14T06:26:30.308Z,8.50
2022-11-14T06:29:15.515Z,8.30
2022-11-14T06:32:00.922Z,8.60
2022-11-14T06:34:45.997Z,8.30
2022-11-14T06:37:33.793Z,8.20
2022-11-14T06:40:19.992Z,8.50
2022-11-14T06:43:05.393Z,8.50
2022-11-14T06:45:54.028Z,8.30
2022-11-14T06:48:39.478Z,8.50
2022-11-14T06:51:25.170Z,8.40
2022-11-14T06:54:13.797Z,8.20
2022-11-14T06:56:59.142Z,8.40
2022-11-14T06:59:44.510Z,8.40
2022-11-14T07:02:29.536Z,8.20
2022-11-14T07:05:14.873Z,8.40
2022-11-14T07:07:59.969Z,8.60
2022-11-14T07:10:45.131Z,8.60
2022-11-14T07:13:31.305Z,8.50
2022-11-14T07:16:16.410Z,8.60
2022-11-14T07:19:03.127Z,8.70
2022-11-14T07:21:48.538Z,8.60
2022-11-14T07:24:33.736Z,8.70
2022-11-14T07:27:19.033Z,8.50
2022-11-14T07:30:04.839Z,8.60
2022-11-14T07:32:57.421Z,8.70
2022-11-14T07:35:42.587Z,8.70
2022-11-14T07:38:28.156Z,8.70
2022-11-14T07:41:15.461Z,8.50
2022-11-14T07:44:00.604Z,8.80
2022-11-14T07:46:46.023Z,8.60
2022-11-14T07:49:31.195Z,8.70
2022-11-14T07:52:16.477Z,8.70
2022-11-14T07:55:01.403Z,8.90
2022-11-14T07:57:49.423Z,8.80
2022-11-14T08:00:34.882Z,8.50
2022-11-14T08:03:19.949Z,8.70
2022-11-14T08:06:23.534Z,8.80
2022-11-14T08:09:08.851Z,8.50
2022-11-14T08:11:53.727Z,8.60
2022-11-14T08:14:38.888Z,8.70
2022-11-14T08:17:24.365Z,8.70
2022-11-14T08:20:10.321Z,8.60
2022-11-14T08:23:01.789Z,8.60
2022-11-14T08:25:47.044Z,8.50
2022-11-14T08:28:35.236Z,8.60
2022-11-14T08:31:21.144Z,8.50
2022-11-14T08:34:06.324Z,8.40
2022-11-14T08:36:51.573Z,8.30
2022-11-14T08:39:37.448Z,8.30
2022-11-14T08:42:22.533Z,8.20
2022-11-14T08:45:08.059Z,8.30
2022-11-14T08:47:53.573Z,8.60
2022-11-14T08:50:38.808Z,8.60
2022-11-14T08:53:24.675Z,8.90
2022-11-14T08:56:11.103Z,8.80
2022-11-14T08:58:56.084Z,9.00
2022-11-14T09:01:42.201Z,9.20
2022-11-14T09:04:27.248Z,9.30
2022-11-14T09:07:12.209Z,9.20
2022-11-14T09:09:57.279Z,9.40
2022-11-14T09:12:42.320Z,9.50
2022-11-14T09:15:28.496Z,9.60
2022-11-14T09:18:13.844Z,9.80
2022-11-14T09:21:03.758Z,9.90
2022-11-14T09:23:48.588Z,10.00
2022-11-14T09:26:33.859Z,10.10
2022-11-14T09:29:19.018Z,10.50
2022-11-14T09:32:04.000Z,10.70
2022-11-14T09:34:49.317Z,11.00
2022-11-14T09:37:34.551Z,11.20
2022-11-14T09:40:20.015Z,11.50
2022-11-14T09:43:15.332Z,11.70
2022-11-14T09:46:01.589Z,11.90
2022-11-14T09:48:46.653Z,12.40
2022-11-14T09:51:39.892Z,12.30
2022-11-14T09:54:32.494Z,12.50
2022-11-14T09:57:19.783Z,12.70
2022-11-14T10:00:18.291Z,12.70
2022-11-14T10:03:24.660Z,12.80
2022-11-14T10:06:48.441Z,12.80
2022-11-14T10:09:49.079Z,13.00
2022-11-14T10:12:36.869Z,13.10
2022-11-14T10:15:34.153Z,13.30
2022-11-14T10:18:43.502Z,13.40
2022-11-14T10:21:34.735Z,13.30
2022-11-14T10:24:51.724Z,13.30
2022-11-14T10:28:02.338Z,13.10
2022-11-14T10:31:03.389Z,13.30
2022-11-14T10:33:57.646Z,13.60
2022-11-14T10:36:57.799Z,13.50
2022-11-14T10:39:48.197Z,13.40
2022-11-14T10:42:37.093Z,13.00
2022-11-14T10:45:26.261Z,13.40
2022-11-14T10:48:41.745Z,13.40
2022-11-14T10:51:38.918Z,13.50
2022-11-14T10:54:32.865Z,13.90
2022-11-14T10:57:20.524Z,14.10
2022-11-14T11:00:19.713Z,14.20
2022-11-14T11:03:08.093Z,14.40
2022-11-14T11:05:59.970Z,14.50
2022-11-14T11:09:03.805Z,14.70
2022-11-14T11:11:58.370Z,14.60
2022-11-14T11:14:44.959Z,14.40
2022-11-14T11:17:36.124Z,14.90
2022-11-14T11:20:39.492Z,15.00
2022-11-14T11:23:26.935Z,15.20
2022-11-14T11:26:31.997Z,15.30
2022-11-14T11:29:18.298Z,15.50
2022-11-14T11:32:07.621Z,15.80
2022-11-14T11:34:52.453Z,15.90
2022-11-14T11:37:43.344Z,15.70
2022-11-14T11:40:29.739Z,15.80
2022-11-14T11:43:42.812Z,16.20
2022-11-14T11:46:43.447Z,15.80
2022-11-14T11:49:47.394Z,15.00
2022-11-14T11:53:12.895Z,15.80
2022-11-14T11:56:16.325Z,15.60
2022-11-14T11:59:25.670Z,15.10
2022-11-14T12:02:30.996Z,15.50
2022-11-14T12:05:39.451Z,14.70
2022-11-14T12:09:02.479Z,14.80
2022-11-14T12:11:52.762Z,14.90
2022-11-14T12:14:59.456Z,15.00
2022-11-14T12:17:53.697Z,15.30
2022-11-14T12:21:04.804Z,14.70
2022-11-14T12:24:08.712Z,14.50
2022-11-14T12:27:22.085Z,15.10
2022-11-14T12:30:11.956Z,15.50
2022-11-14T12:33:18.802Z,15.90
2022-11-14T12:36:07.979Z,15.50
2022-11-14T12:38:54.242Z,15.80
2022-11-14T12:41:40.363Z,15.70
2022-11-14T12:44:28.516Z,15.50
2022-11-14T12:47:19.206Z,15.90
2022-11-14T12:50:06.357Z,15.80
2022-11-14T12:52:53.933Z,16.50
2022-11-14T12:55:53.864Z,16.50
2022-11-14T12:59:20.650Z,17.00
2022-11-14T13:02:29.266Z,16.30
2022-11-14T13:05:14.634Z,16.00
2022-11-14T13:08:10.195Z,16.30
2022-11-14T13:10:55.412Z,16.50
2022-11-14T13:14:20.554Z,16.60
2022-11-14T13:17:36.508Z,16.60
2022-11-14T13:20:40.405Z,15.90
2022-11-14T13:23:25.761Z,15.80
2022-11-14T13:26:10.891Z,16.10
2022-11-14T13:28:57.870Z,16.20
2022-11-14T13:31:47.239Z,15.80
2022-11-14T13:34:52.554Z,15.60
2022-11-14T13:37:54.774Z,14.70
2022-11-14T13:40:51.511Z,15.30
2022-11-14T13:44:15.483Z,14.90
2022-11-14T13:47:11.714Z,15.50
2022-11-14T13:50:01.981Z,15.60
2022-11-14T13:52:48.845Z,15.50
2022-11-14T13:55:59.987Z,15.80
2022-11-14T13:58:57.082Z,16.00
2022-11-14T14:01:52.119Z,15.60
2022-11-14T14:04:56.008Z,15.70
2022-11-14T14:08:10.539Z,14.70
2022-11-14T14:11:28.436Z,14.30
2022-11-14T14:14:37.879Z,14.30
2022-11-14T14:17:31.719Z,14.00
2022-11-14T14:20:38.564Z,14.70
2022-11-14T14:23:32.862Z,14.90
2022-11-14T14:26:18.284Z,15.10
2022-11-14T14:29:21.890Z,14.70
2022-11-14T14:32:15.593Z,14.70
2022-11-14T14:35:00.676Z,14.80
2022-11-14T14:37:51.321Z,14.80
2022-11-14T14:40:38.338Z,14.80
2022-11-14T14:43:32.616Z,14.60
2022-11-14T14:46:27.177Z,14.60
2022-11-14T14:49:19.433Z,14.70
2022-11-14T14:52:36.038Z,14.60
2022-11-14T14:55:23.161Z,14.60
2022-11-14T14:58:28.065Z,14.80
2022-11-14T15:01:18.431Z,14.80
2022-11-14T15:04:08.496Z,14.80
2022-11-14T15:06:57.186Z,14.40
2022-11-14T15:09:59.961Z,14.10
2022-11-14T15:12:45.291Z,14.00
2022-11-14T15:15:31.030Z,13.80
2022-11-14T15:18:31.110Z,14.20
2022-11-14T15:21:27.235Z,14.20
2022-11-14T15:24:20.710Z,14.30
2022-11-14T15:27:16.892Z,14.40
2022-11-14T15:30:05.877Z,14.00
2022-11-14T15:32:53.497Z,13.90
2022-11-14T15:35:39.793Z,14.00
2022-11-14T15:41:33.712Z,14.00
2022-11-14T15:44:29.831Z,13.70
2022-11-14T15:47:39.119Z,13.50
2022-11-14T15:50:42.300Z,13.50
2022-11-14T15:53:28.663Z,13.40
2022-11-14T15:56:13.978Z,13.30
2022-11-14T15:58:59.172Z,13.40
2022-11-14T16:01:46.609Z,13.40
2022-11-14T16:04:36.028Z,13.40
2022-11-14T16:07:21.802Z,13.30
2022-11-14T16:10:20.897Z,13.30
2022-11-14T16:13:06.790Z,13.20
2022-11-14T16:15:51.911Z,13.20
2022-11-14T16:18:37.132Z,12.90
2022-11-14T16:21:22.469Z,13.00
2022-11-14T16:24:13.678Z,13.10
2022-11-14T16:26:58.995Z,13.00
2022-11-14T16:29:44.318Z,12.90
2022-11-14T16:32:29.729Z,12.80
2022-11-14T16:35:17.087Z,12.80
2022-11-14T16:38:02.451Z,12.80
2022-11-14T16:40:47.654Z,12.80
2022-11-14T16:43:33.018Z,12.60
2022-11-14T16:46:18.187Z,12.50
2022-11-14T16:49:03.220Z,12.40
2022-11-14T16:51:52.372Z,12.30
2022-11-14T16:54:37.331Z,12.20
2022-11-14T16:57:23.081Z,12.30
2022-11-14T17:00:10.933Z,12.00
2022-11-14T17:02:56.542Z,12.00
2022-11-14T17:05:46.328Z,12.00
2022-11-14T17:08:31.278Z,12.00
2022-11-14T17:11:16.401Z,11.90
2022-11-14T17:14:01.702Z,11.80
2022-11-14T17:16:46.811Z,11.80
2022-11-14T17:19:31.894Z,11.80
2022-11-14T17:22:18.084Z,11.60
2022-11-14T17:25:03.078Z,11.60
2022-11-14T17:27:51.304Z,11.30
2022-11-14T17:30:45.473Z,11.50
2022-11-14T17:33:30.891Z,11.10
2022-11-14T17:36:17.798Z,11.10
2022-11-14T17:39:02.924Z,11.20
2022-11-14T17:41:48.470Z,10.50
2022-11-14T17:44:33.630Z,10.40
2022-11-14T17:47:19.614Z,10.40
2022-11-14T17:50:05.022Z,10.90
2022-11-14T17:52:50.200Z,11.20
2022-11-14T17:55:35.388Z,11.20
2022-11-14T17:58:20.484Z,11.30
2022-11-14T18:01:13.993Z,11.30
2022-11-14T18:04:04.483Z,11.30
2022-11-14T18:06:51.416Z,11.20
2022-11-14T18:09:36.682Z,11.20
2022-11-14T18:12:21.882Z,11.20
2022-11-14T18:15:08.210Z,11.30
2022-11-14T18:17:53.107Z,11.10
2022-11-14T18:20:38.278Z,10.90
2022-11-14T18:23:23.516Z,10.50
2022-11-14T18:26:13.352Z,10.70
2022-11-14T18:29:01.073Z,10.30
2022-11-14T18:31:46.476Z,10.40
2022-11-14T18:34:31.627Z,10.70
2022-11-14T18:37:16.664Z,10.60
2022-11-14T18:40:01.842Z,10.40
2022-11-14T18:42:47.316Z,10.40
2022-11-14T18:45:34.572Z,10.60
2022-11-14T18:48:19.694Z,10.40
2022-11-14T18:51:07.589Z,10.50
2022-11-14T18:53:55.199Z,10.40
2022-11-14T18:56:40.407Z,10.40
2022-11-14T18:59:26.531Z,10.50
2022-11-14T19:02:11.762Z,10.30
2022-11-14T19:04:57.022Z,10.60
2022-11-14T19:07:42.234Z,10.60
2022-11-14T19:10:27.232Z,10.30
2022-11-14T19:13:12.477Z,10.30
2022-11-14T19:16:04.974Z,10.40
2022-11-14T19:18:49.934Z,10.50
2022-11-14T19:21:35.541Z,10.40
2022-11-14T19:24:20.624Z,10.50
2022-11-14T19:27:05.901Z,10.40
2022-11-14T19:29:51.127Z,10.50
2022-11-14T19:32:36.065Z,10.40
2022-11-14T19:35:21.413Z,10.50
2022-11-14T19:38:06.555Z,10.30
2022-11-14T19:40:52.174Z,10.50
2022-11-14T19:43:37.954Z,10.40
2022-11-14T19:46:28.975Z,10.30
2022-11-14T19:49:13.909Z,10.40
2022-11-14T19:51:59.148Z,10.30
2022-11-14T19:54:44.353Z,10.30
2022-11-14T19:57:30.890Z,10.30
2022-11-14T20:00:16.443Z,10.10
2022-11-14T20:03:01.637Z,10.10
2022-11-14T20:05:46.818Z,10.10
2022-11-14T20:08:32.092Z,9.90
2022-11-14T20:11:17.721Z,9.80
2022-11-14T20:14:03.153Z,9.80
2022-11-14T20:16:48.380Z,9.90
2022-11-14T20:19:33.767Z,9.80
2022-11-14T20:22:19.042Z,9.90
2022-11-14T20:25:04.925Z,10.00
2022-11-14T20:27:50.133Z,9.90
2022-11-14T20:30:41.634Z,10.00
2022-11-14T20:33:26.958Z,10.10
2022-11-14T20:36:17.447Z,10.10
2022-11-14T20:39:02.670Z,9.80
2022-11-14T20:41:47.928Z,9.80
2022-11-14T20:44:33.343Z,9.80
2022-11-14T20:47:18.722Z,10.20
2022-11-14T20:50:04.422Z,10.20
2022-11-14T20:52:49.498Z,10.40
2022-11-14T20:55:34.807Z,10.20
2022-11-14T20:58:20.428Z,9.90
2022-11-14T21:01:05.501Z,10.10
2022-11-14T21:03:51.121Z,10.00
2022-11-14T21:06:36.113Z,9.70
2022-11-14T21:09:21.349Z,9.30
2022-11-14T21:12:06.365Z,9.50
2022-11-14T21:14:51.583Z,9.30
2022-11-14T21:17:36.604Z,9.40
2022-11-14T21:20:21.815Z,9.70
2022-11-14T21:23:06.756Z,9.60
2022-11-14T21:25:51.523Z,9.90
2022-11-14T21:28:39.468Z,9.70
2022-11-14T21:31:27.478Z,9.60
2022-11-14T21:34:14.300Z,9.80
2022-11-14T21:36:59.309Z,9.80
2022-11-14T21:39:44.493Z,9.80
2022-11-14T21:42:29.444Z,9.60
2022-11-14T21:45:15.659Z,9.80
2022-11-14T21:48:00.866Z,9.80
2022-11-14T21:50:45.968Z,9.90
2022-11-14T21:53:31.712Z,9.70
2022-11-14T21:56:23.014Z,9.70
2022-11-14T21:59:21.193Z,9.80
2022-11-14T22:02:25.586Z,9.60
2022-11-14T22:05:10.748Z,9.60
2022-11-14T22:07:56.076Z,9.50
2022-11-14T22:10:41.353Z,9.20
2022-11-14T22:13:26.320Z,9.40
2022-11-14T22:16:17.572Z,9.40
2022-11-14T22:19:05.472Z,9.30
2022-11-14T22:21:50.992Z,9.40
2022-11-14T22:24:35.990Z,9.60
2022-11-14T22:27:21.306Z,9.60
2022-11-14T22:30:07.143Z,9.60
2022-11-14T22:32:52.319Z,9.60
2022-11-14T22:35:37.545Z,9.50
2022-11-14T22:38:22.655Z,9.50
2022-11-14T22:41:11.734Z,9.50
2022-11-14T22:43:57.008Z,9.20
2022-11-14T22:46:42.433Z,9.30
2022-11-14T22:49:27.577Z,9.20
2022-11-14T22:52:12.498Z,9.20
2022-11-14T22:54:57.475Z,9.20
2022-11-14T22:57:42.760Z,8.80
2022-11-14T23:00:27.678Z,8.90
2022-11-14T23:03:17.555Z,9.00
2022-11-14T23:06:14.257Z,8.90
2022-11-14T23:09:00.628Z,8.70
2022-11-14T23:11:45.962Z,8.80
2022-11-14T23:14:31.097Z,9.00
2022-11-14T23:17:16.125Z,9.30
2022-11-14T23:20:01.304Z,9.40
2022-11-14T23:22:46.655Z,9.50
2022-11-14T23:25:31.781Z,9.30
2022-11-14T23:28:16.685Z,9.30
2022-11-14T23:31:01.914Z,9.30
2022-11-14T23:33:47.972Z,9.50
2022-11-14T23:36:33.166Z,9.10
2022-11-14T23:39:18.412Z,9.10
2022-11-14T23:42:03.489Z,9.00
2022-11-14T23:44:48.865Z,9.00
2022-11-14T23:47:34.008Z,8.90
2022-11-14T23:50:18.825Z,8.80
2022-11-14T23:53:03.934Z,8.60
2022-11-14T23:55:58.165Z,8.60
2022-11-14T23:58:43.442Z,8.70
